createdAt,value
2018-12-04T00:07:47.175Z,21.4
2018-12-04T00:17:46.379Z,21.4
2018-12-04T00:27:45.601Z,21.4
2018-12-04T00:37:44.785Z,21.4
2018-12-04T00:47:43.986Z,21.4
2018-12-04T00:57:43.189Z,21.4
2018-12-04T01:07:42.388Z,21.4
2018-12-04T01:17:41.594Z,21.4
2018-12-04T01:27:40.802Z,21.4
2018-12-04T01:37:40.005Z,21.3
2018-12-04T01:47:39.206Z,21.3
2018-12-04T01:57:38.409Z,21.3
2018-12-04T02:07:37.616Z,21.3
2018-12-04T02:17:36.813Z,21.3
2018-12-04T02:27:36.021Z,21.3
2018-12-04T02:37:35.221Z,21.3
2018-12-04T02:47:34.429Z,21.3
2018-12-04T02:57:33.629Z,21.3
2018-12-04T03:07:32.828Z,21.3
2018-12-04T03:17:32.029Z,21.3
2018-12-04T03:27:31.235Z,21.2
2018-12-04T03:37:30.441Z,21.3
2018-12-04T03:47:29.641Z,21.3
2018-12-04T03:57:28.848Z,21.4
2018-12-04T04:07:28.051Z,21.6
2018-12-04T04:17:27.251Z,21.7
2018-12-04T04:27:26.461Z,22
2018-12-04T04:37:25.671Z,22.1
2018-12-04T04:47:24.874Z,22.1
2018-12-04T04:57:24.084Z,22.3
2018-12-04T05:07:23.291Z,22.1
2018-12-04T05:17:22.502Z,22.1
2018-12-04T05:27:21.709Z,22
2018-12-04T05:37:20.920Z,22
2018-12-04T05:47:20.144Z,22.1
2018-12-04T05:57:19.351Z,22
2018-12-04T06:07:18.554Z,22.4
2018-12-04T06:17:17.757Z,22.4
2018-12-04T06:27:16.962Z,22.4
2018-12-04T06:37:16.165Z,22.3
2018-12-04T06:47:15.371Z,22.3
2018-12-04T06:57:14.580Z,22.3
2018-12-04T07:07:13.784Z,22.3
2018-12-04T07:17:12.985Z,22.3
2018-12-04T07:27:12.193Z,22.4
2018-12-04T07:37:11.391Z,22.6
2018-12-04T07:47:10.591Z,22.6
2018-12-04T07:57:09.796Z,22.7
2018-12-04T08:07:09.009Z,22.8
2018-12-04T08:17:08.202Z,22.8
2018-12-04T08:27:07.405Z,22.7
2018-12-04T08:37:06.602Z,22.6
2018-12-04T08:47:05.812Z,22.6
2018-12-04T08:57:05.016Z,22.6
2018-12-04T09:07:04.215Z,22.5
2018-12-04T09:17:03.417Z,22.4
2018-12-04T09:27:05.431Z,22.6
2018-12-04T09:37:01.815Z,22.8
2018-12-04T09:47:01.023Z,22.8
2018-12-04T09:57:00.224Z,22.7
2018-12-04T10:06:59.429Z,22.5
2018-12-04T10:16:58.628Z,22.6
2018-12-04T10:26:57.829Z,22.6
2018-12-04T10:36:57.030Z,22.6
2018-12-04T10:46:56.228Z,22.6
2018-12-04T10:56:55.427Z,22.6
2018-12-04T11:06:54.641Z,22.5
2018-12-04T11:16:53.837Z,22.4
2018-12-04T11:26:53.037Z,22.4
2018-12-04T11:36:52.235Z,22.4
2018-12-04T11:46:51.441Z,22.6
2018-12-04T11:56:50.638Z,22.7
2018-12-04T12:06:49.852Z,22.8
2018-12-04T12:16:49.047Z,22.9
2018-12-04T12:26:48.246Z,22.6
2018-12-04T12:36:47.449Z,22.4
2018-12-04T12:46:46.652Z,22.6
2018-12-04T12:56:45.858Z,22.8
2018-12-04T13:06:45.055Z,22.8
2018-12-04T13:16:44.256Z,22.9
2018-12-04T13:26:43.464Z,22.9
2018-12-04T13:36:42.661Z,23
2018-12-04T13:46:41.864Z,23.1
2018-12-04T13:56:41.091Z,22.8
2018-12-04T14:06:40.289Z,22.6
2018-12-04T14:16:39.487Z,22.4
2018-12-04T14:26:38.683Z,22.3
2018-12-04T14:36:37.885Z,22.3
2018-12-04T14:46:37.100Z,22.2
2018-12-04T14:56:36.307Z,22.1
2018-12-04T15:06:35.503Z,22.1
2018-12-04T15:16:34.711Z,22.1
2018-12-04T15:26:33.906Z,22.2
2018-12-04T15:36:33.130Z,22.3
2018-12-04T15:46:32.338Z,22.3
2018-12-04T15:56:31.520Z,22.4
2018-12-04T16:06:30.729Z,22.3
2018-12-04T16:16:29.935Z,22.3
2018-12-04T16:26:29.142Z,22.4
2018-12-04T16:36:28.352Z,22.4
2018-12-04T16:46:27.564Z,22.4
2018-12-04T16:56:26.781Z,22.4
2018-12-04T17:06:25.982Z,22.3
2018-12-04T17:16:25.181Z,22.3
2018-12-04T17:26:24.493Z,22.4
2018-12-04T17:36:23.598Z,22.3
2018-12-04T17:46:22.801Z,22.3
2018-12-04T17:56:22.013Z,22.5
2018-12-04T18:06:21.223Z,22.7
2018-12-04T18:16:20.429Z,22.7
2018-12-04T18:26:19.648Z,22.4
2018-12-04T18:36:18.863Z,22.4
2018-12-04T18:46:18.073Z,22.3
2018-12-04T18:56:17.279Z,22.3
2018-12-04T19:06:16.499Z,22.2
2018-12-04T19:16:15.713Z,22.2
2018-12-04T19:26:14.924Z,22.1
2018-12-04T19:36:14.133Z,22.1
2018-12-04T19:46:13.346Z,22.1
2018-12-04T19:56:12.555Z,22.1
2018-12-04T20:06:11.761Z,22
2018-12-04T20:16:10.971Z,22
2018-12-04T20:26:10.190Z,22
2018-12-04T20:36:09.449Z,22.1
2018-12-04T20:46:08.605Z,22.1
2018-12-04T20:56:07.821Z,22
2018-12-04T21:06:07.020Z,22
2018-12-04T21:16:06.226Z,21.9
2018-12-04T21:26:05.448Z,21.9
2018-12-04T21:36:04.647Z,21.9
2018-12-04T21:46:03.857Z,21.9
2018-12-04T21:56:03.116Z,21.9
2018-12-04T22:06:02.265Z,21.9
2018-12-04T22:16:01.470Z,21.8
2018-12-04T22:26:00.673Z,21.8
2018-12-04T22:35:59.881Z,21.8
2018-12-04T22:45:59.092Z,21.8
2018-12-04T22:55:58.301Z,21.8
2018-12-04T23:05:57.503Z,21.8
2018-12-04T23:15:56.705Z,21.8
2018-12-04T23:25:55.914Z,21.8
2018-12-04T23:35:55.123Z,21.8
2018-12-04T23:45:54.326Z,21.7
2018-12-04T23:55:53.533Z,21.7
